sensor_id;sensor_type;location;lat;lon;timestamp;pressure;altitude;pressure_sealevel;temperature;humidity
69223;BME280;56514;51.816;-0.026;2022-07-29T00:01:23;101290.06;;;16.55;53.16
69223;BME280;56514;51.816;-0.026;2022-07-29T00:04:27;101285.72;;;16.54;52.96
69223;BME280;56514;51.816;-0.026;2022-07-29T00:07:33;101286.81;;;16.52;53.45
69223;BME280;56514;51.816;-0.026;2022-07-29T00:10:38;101287.53;;;16.54;53.67
69223;BME280;56514;51.816;-0.026;2022-07-29T00:13:48;101286.53;;;16.55;53.64
69223;BME280;56514;51.816;-0.026;2022-07-29T00:16:57;101280.41;;;16.54;53.98
69223;BME280;56514;51.816;-0.026;2022-07-29T00:20:07;101275.63;;;16.58;54.13
69223;BME280;56514;51.816;-0.026;2022-07-29T00:23:16;101275.16;;;16.64;54.24
69223;BME280;56514;51.816;-0.026;2022-07-29T00:26:01;101273.78;;;16.69;53.90
69223;BME280;56514;51.816;-0.026;2022-07-29T00:28:45;101275.78;;;16.77;54.16
69223;BME280;56514;51.816;-0.026;2022-07-29T00:31:30;101272.47;;;16.84;53.94
69223;BME280;56514;51.816;-0.026;2022-07-29T00:34:16;101270.00;;;16.92;53.82
69223;BME280;56514;51.816;-0.026;2022-07-29T00:37:19;101276.09;;;17.04;53.71
69223;BME280;56514;51.816;-0.026;2022-07-29T00:40:04;101271.94;;;17.11;53.84
69223;BME280;56514;51.816;-0.026;2022-07-29T00:42:50;101265.94;;;17.18;53.40
69223;BME280;56514;51.816;-0.026;2022-07-29T00:45:36;101260.22;;;17.23;53.88
69223;BME280;56514;51.816;-0.026;2022-07-29T00:48:20;101249.97;;;17.28;53.73
69223;BME280;56514;51.816;-0.026;2022-07-29T00:51:06;101261.22;;;17.31;54.37
69223;BME280;56514;51.816;-0.026;2022-07-29T00:53:52;101262.63;;;17.35;54.70
69223;BME280;56514;51.816;-0.026;2022-07-29T00:56:37;101262.38;;;17.38;54.32
69223;BME280;56514;51.816;-0.026;2022-07-29T00:59:22;101261.25;;;17.41;54.32
69223;BME280;56514;51.816;-0.026;2022-07-29T01:02:07;101250.34;;;17.44;54.41
69223;BME280;56514;51.816;-0.026;2022-07-29T01:04:53;101251.06;;;17.46;54.04
69223;BME280;56514;51.816;-0.026;2022-07-29T01:07:39;101254.28;;;17.49;54.43
69223;BME280;56514;51.816;-0.026;2022-07-29T01:10:24;101259.34;;;17.52;54.14
69223;BME280;56514;51.816;-0.026;2022-07-29T01:13:10;101255.72;;;17.54;54.32
69223;BME280;56514;51.816;-0.026;2022-07-29T01:16:01;101251.06;;;17.56;54.25
69223;BME280;56514;51.816;-0.026;2022-07-29T01:18:49;101256.28;;;17.57;54.38
69223;BME280;56514;51.816;-0.026;2022-07-29T01:21:51;101249.00;;;17.59;54.63
69223;BME280;56514;51.816;-0.026;2022-07-29T01:24:49;101246.91;;;17.63;54.19
69223;BME280;56514;51.816;-0.026;2022-07-29T01:28:14;101246.78;;;17.64;54.78
69223;BME280;56514;51.816;-0.026;2022-07-29T01:35:19;101249.31;;;17.66;54.38
69223;BME280;56514;51.816;-0.026;2022-07-29T01:38:29;101247.44;;;17.66;54.71
69223;BME280;56514;51.816;-0.026;2022-07-29T01:41:52;101248.19;;;17.68;54.82
69223;BME280;56514;51.816;-0.026;2022-07-29T01:45:14;101241.72;;;17.71;54.88
69223;BME280;56514;51.816;-0.026;2022-07-29T01:48:33;101243.56;;;17.70;54.81
69223;BME280;56514;51.816;-0.026;2022-07-29T01:51:49;101244.50;;;17.69;54.73
69223;BME280;56514;51.816;-0.026;2022-07-29T01:55:04;101240.75;;;17.72;55.14
69223;BME280;56514;51.816;-0.026;2022-07-29T01:58:17;101239.75;;;17.73;55.17
69223;BME280;56514;51.816;-0.026;2022-07-29T02:01:30;101238.91;;;17.72;55.22
69223;BME280;56514;51.816;-0.026;2022-07-29T02:04:41;101237.81;;;17.75;55.27
69223;BME280;56514;51.816;-0.026;2022-07-29T02:07:32;101251.00;;;17.76;55.27
69223;BME280;56514;51.816;-0.026;2022-07-29T02:10:22;101246.38;;;17.78;55.18
69223;BME280;56514;51.816;-0.026;2022-07-29T02:13:09;101247.94;;;17.81;55.15
69223;BME280;56514;51.816;-0.026;2022-07-29T02:15:57;101255.81;;;17.82;55.20
69223;BME280;56514;51.816;-0.026;2022-07-29T02:18:43;101241.75;;;17.80;55.02
69223;BME280;56514;51.816;-0.026;2022-07-29T02:21:31;101248.78;;;17.81;55.24
69223;BME280;56514;51.816;-0.026;2022-07-29T02:24:18;101243.59;;;17.80;55.21
69223;BME280;56514;51.816;-0.026;2022-07-29T02:27:05;101251.44;;;17.81;55.63
69223;BME280;56514;51.816;-0.026;2022-07-29T02:29:51;101254.41;;;17.78;55.05
69223;BME280;56514;51.816;-0.026;2022-07-29T02:32:40;101254.41;;;17.78;55.02
69223;BME280;56514;51.816;-0.026;2022-07-29T02:35:27;101246.38;;;17.78;55.36
69223;BME280;56514;51.816;-0.026;2022-07-29T02:38:14;101249.06;;;17.78;55.30
69223;BME280;56514;51.816;-0.026;2022-07-29T02:41:29;101247.34;;;17.77;55.27
69223;BME280;56514;51.816;-0.026;2022-07-29T02:44:17;101243.72;;;17.78;55.34
69223;BME280;56514;51.816;-0.026;2022-07-29T02:47:23;101248.19;;;17.78;55.75
69223;BME280;56514;51.816;-0.026;2022-07-29T02:50:12;101247.50;;;17.76;55.35
69223;BME280;56514;51.816;-0.026;2022-07-29T02:53:13;101254.63;;;17.75;55.59
69223;BME280;56514;51.816;-0.026;2022-07-29T02:56:03;101254.09;;;17.72;55.95
69223;BME280;56514;51.816;-0.026;2022-07-29T02:58:55;101248.03;;;17.70;55.94
69223;BME280;56514;51.816;-0.026;2022-07-29T03:01:42;101250.97;;;17.67;56.08
69223;BME280;56514;51.816;-0.026;2022-07-29T03:04:29;101249.44;;;17.64;56.19
69223;BME280;56514;51.816;-0.026;2022-07-29T03:07:18;101249.56;;;17.63;56.32
69223;BME280;56514;51.816;-0.026;2022-07-29T03:10:26;101253.06;;;17.63;56.42
69223;BME280;56514;51.816;-0.026;2022-07-29T03:13:32;101261.94;;;17.64;57.06
69223;BME280;56514;51.816;-0.026;2022-07-29T03:16:41;101260.13;;;17.64;56.78
69223;BME280;56514;51.816;-0.026;2022-07-29T03:19:46;101264.47;;;17.65;56.70
69223;BME280;56514;51.816;-0.026;2022-07-29T03:22:51;101259.13;;;17.65;56.52
69223;BME280;56514;51.816;-0.026;2022-07-29T03:25:56;101259.84;;;17.67;56.77
69223;BME280;56514;51.816;-0.026;2022-07-29T03:29:06;101256.19;;;17.68;56.91
69223;BME280;56514;51.816;-0.026;2022-07-29T03:32:15;101257.84;;;17.69;57.11
69223;BME280;56514;51.816;-0.026;2022-07-29T03:35:24;101256.31;;;17.67;56.85
69223;BME280;56514;51.816;-0.026;2022-07-29T03:38:35;101245.78;;;17.65;57.08
69223;BME280;56514;51.816;-0.026;2022-07-29T03:41:47;101250.13;;;17.66;57.58
69223;BME280;56514;51.816;-0.026;2022-07-29T03:45:02;101246.78;;;17.64;57.56
69223;BME280;56514;51.816;-0.026;2022-07-29T03:48:14;101249.72;;;17.61;57.25
69223;BME280;56514;51.816;-0.026;2022-07-29T03:51:26;101252.38;;;17.61;57.67
69223;BME280;56514;51.816;-0.026;2022-07-29T03:54:12;101252.66;;;17.58;58.31
69223;BME280;56514;51.816;-0.026;2022-07-29T03:56:59;101258.25;;;17.55;58.45
69223;BME280;56514;51.816;-0.026;2022-07-29T03:59:45;101266.41;;;17.54;58.23
69223;BME280;56514;51.816;-0.026;2022-07-29T04:02:31;101262.03;;;17.52;58.29
69223;BME280;56514;51.816;-0.026;2022-07-29T04:05:17;101254.16;;;17.51;58.71
69223;BME280;56514;51.816;-0.026;2022-07-29T04:08:02;101253.47;;;17.49;58.34
69223;BME280;56514;51.816;-0.026;2022-07-29T04:10:47;101256.28;;;17.48;58.86
69223;BME280;56514;51.816;-0.026;2022-07-29T04:13:32;101258.94;;;17.48;58.32
69223;BME280;56514;51.816;-0.026;2022-07-29T04:16:17;101247.41;;;17.47;58.70
69223;BME280;56514;51.816;-0.026;2022-07-29T04:19:02;101240.25;;;17.48;58.53
69223;BME280;56514;51.816;-0.026;2022-07-29T04:21:47;101249.59;;;17.42;58.63
69223;BME280;56514;51.816;-0.026;2022-07-29T04:24:32;101252.41;;;17.40;58.91
69223;BME280;56514;51.816;-0.026;2022-07-29T04:27:17;101258.13;;;17.36;58.80
69223;BME280;56514;51.816;-0.026;2022-07-29T04:30:02;101254.75;;;17.34;59.59
69223;BME280;56514;51.816;-0.026;2022-07-29T04:32:50;101266.53;;;17.31;59.98
69223;BME280;56514;51.816;-0.026;2022-07-29T04:35:37;101254.47;;;17.27;59.67
69223;BME280;56514;51.816;-0.026;2022-07-29T04:38:22;101263.88;;;17.31;59.84
69223;BME280;56514;51.816;-0.026;2022-07-29T04:41:07;101260.94;;;17.34;59.70
69223;BME280;56514;51.816;-0.026;2022-07-29T04:43:53;101267.81;;;17.37;60.19
69223;BME280;56514;51.816;-0.026;2022-07-29T04:46:38;101262.94;;;17.42;60.12
69223;BME280;56514;51.816;-0.026;2022-07-29T04:49:23;101260.75;;;17.47;59.49
69223;BME280;56514;51.816;-0.026;2022-07-29T04:52:07;101260.06;;;17.55;59.35
69223;BME280;56514;51.816;-0.026;2022-07-29T04:55:12;101259.41;;;17.62;59.48
69223;BME280;56514;51.816;-0.026;2022-07-29T04:58:16;101261.97;;;17.73;59.17
69223;BME280;56514;51.816;-0.026;2022-07-29T05:01:26;101259.59;;;17.80;58.98
69223;BME280;56514;51.816;-0.026;2022-07-29T05:04:31;101254.53;;;17.86;58.90
69223;BME280;56514;51.816;-0.026;2022-07-29T05:07:40;101245.97;;;17.92;59.13
69223;BME280;56514;51.816;-0.026;2022-07-29T05:10:48;101246.28;;;17.99;59.03
69223;BME280;56514;51.816;-0.026;2022-07-29T05:13:57;101245.13;;;18.01;59.17
69223;BME280;56514;51.816;-0.026;2022-07-29T05:17:07;101254.13;;;18.00;59.64
69223;BME280;56514;51.816;-0.026;2022-07-29T05:20:16;101261.03;;;17.93;59.16
69223;BME280;56514;51.816;-0.026;2022-07-29T05:23:27;101264.25;;;17.87;59.21
69223;BME280;56514;51.816;-0.026;2022-07-29T05:26:36;101264.78;;;17.81;59.34
69223;BME280;56514;51.816;-0.026;2022-07-29T05:29:45;101269.13;;;17.73;59.64
69223;BME280;56514;51.816;-0.026;2022-07-29T05:32:54;101271.34;;;17.68;59.79
69223;BME280;56514;51.816;-0.026;2022-07-29T05:35:39;101270.91;;;17.63;60.04
69223;BME280;56514;51.816;-0.026;2022-07-29T05:38:23;101277.34;;;17.60;59.90
69223;BME280;56514;51.816;-0.026;2022-07-29T05:41:08;101282.97;;;17.57;59.91
69223;BME280;56514;51.816;-0.026;2022-07-29T05:43:53;101295.34;;;17.58;60.43
69223;BME280;56514;51.816;-0.026;2022-07-29T05:46:38;101292.53;;;17.60;60.04
69223;BME280;56514;51.816;-0.026;2022-07-29T05:51:56;101291.59;;;17.70;59.85
69223;BME280;56514;51.816;-0.026;2022-07-29T05:54:40;101296.56;;;17.84;60.03
69223;BME280;56514;51.816;-0.026;2022-07-29T05:57:25;101290.66;;;18.00;59.36
69223;BME280;56514;51.816;-0.026;2022-07-29T06:00:11;101286.59;;;18.15;59.15
69223;BME280;56514;51.816;-0.026;2022-07-29T06:02:55;101295.94;;;18.30;58.72
69223;BME280;56514;51.816;-0.026;2022-07-29T06:05:41;101286.97;;;18.40;59.12
69223;BME280;56514;51.816;-0.026;2022-07-29T06:08:26;101279.78;;;18.50;58.73
69223;BME280;56514;51.816;-0.026;2022-07-29T06:11:10;101289.91;;;18.56;59.23
69223;BME280;56514;51.816;-0.026;2022-07-29T06:13:55;101296.38;;;18.63;59.36
69223;BME280;56514;51.816;-0.026;2022-07-29T06:16:40;101293.16;;;18.69;58.93
69223;BME280;56514;51.816;-0.026;2022-07-29T06:19:25;101286.09;;;18.78;59.12
69223;BME280;56514;51.816;-0.026;2022-07-29T06:22:10;101285.38;;;18.85;58.93
69223;BME280;56514;51.816;-0.026;2022-07-29T06:24:55;101290.56;;;18.96;58.99
69223;BME280;56514;51.816;-0.026;2022-07-29T06:27:40;101281.66;;;19.05;58.74
69223;BME280;56514;51.816;-0.026;2022-07-29T06:30:24;101281.66;;;19.15;58.96
69223;BME280;56514;51.816;-0.026;2022-07-29T06:33:16;101286.69;;;19.28;58.64
69223;BME280;56514;51.816;-0.026;2022-07-29T06:36:03;101282.88;;;19.40;58.67
69223;BME280;56514;51.816;-0.026;2022-07-29T06:39:08;101283.78;;;19.58;58.27
69223;BME280;56514;51.816;-0.026;2022-07-29T06:42:13;101284.81;;;19.74;58.05
69223;BME280;56514;51.816;-0.026;2022-07-29T06:45:17;101284.81;;;19.92;57.58
69223;BME280;56514;51.816;-0.026;2022-07-29T06:48:22;101288.94;;;20.13;57.47
69223;BME280;56514;51.816;-0.026;2022-07-29T06:51:29;101286.97;;;20.33;57.21
69223;BME280;56514;51.816;-0.026;2022-07-29T06:54:38;101288.50;;;20.53;56.70
69223;BME280;56514;51.816;-0.026;2022-07-29T06:57:48;101291.84;;;20.72;56.51
69223;BME280;56514;51.816;-0.026;2022-07-29T07:01:00;101291.78;;;21.00;55.88
69223;BME280;56514;51.816;-0.026;2022-07-29T07:04:10;101290.44;;;21.29;55.42
69223;BME280;56514;51.816;-0.026;2022-07-29T07:07:19;101296.28;;;21.58;54.93
69223;BME280;56514;51.816;-0.026;2022-07-29T07:10:28;101289.69;;;21.78;54.21
69223;BME280;56514;51.816;-0.026;2022-07-29T07:13:38;101295.28;;;21.93;53.92
69223;BME280;56514;51.816;-0.026;2022-07-29T07:16:48;101301.50;;;21.93;53.44
69223;BME280;56514;51.816;-0.026;2022-07-29T07:19:57;101301.84;;;21.90;53.56
69223;BME280;56514;51.816;-0.026;2022-07-29T07:23:06;101306.50;;;21.80;53.51
69223;BME280;56514;51.816;-0.026;2022-07-29T07:25:50;101304.72;;;21.63;53.59
69223;BME280;56514;51.816;-0.026;2022-07-29T07:28:35;101300.66;;;21.59;53.75
69223;BME280;56514;51.816;-0.026;2022-07-29T07:31:20;101311.59;;;21.66;53.95
69223;BME280;56514;51.816;-0.026;2022-07-29T07:34:05;101307.56;;;21.70;53.46
69223;BME280;56514;51.816;-0.026;2022-07-29T07:36:53;101305.22;;;21.67;53.46
69223;BME280;56514;51.816;-0.026;2022-07-29T07:39:38;101309.44;;;21.69;53.46
69223;BME280;56514;51.816;-0.026;2022-07-29T07:42:23;101321.00;;;21.95;53.00
69223;BME280;56514;51.816;-0.026;2022-07-29T07:45:08;101319.56;;;22.17;52.44
69223;BME280;56514;51.816;-0.026;2022-07-29T07:47:54;101319.75;;;22.31;51.32
69223;BME280;56514;51.816;-0.026;2022-07-29T07:50:38;101313.03;;;22.43;51.04
69223;BME280;56514;51.816;-0.026;2022-07-29T07:53:23;101321.69;;;22.55;50.74
69223;BME280;56514;51.816;-0.026;2022-07-29T07:56:08;101309.91;;;22.56;49.56
69223;BME280;56514;51.816;-0.026;2022-07-29T07:58:53;101317.75;;;22.49;49.41
69223;BME280;56514;51.816;-0.026;2022-07-29T08:01:38;101322.00;;;22.52;49.11
69223;BME280;56514;51.816;-0.026;2022-07-29T08:04:23;101320.81;;;22.55;48.68
69223;BME280;56514;51.816;-0.026;2022-07-29T08:07:09;101325.88;;;22.58;46.98
69223;BME280;56514;51.816;-0.026;2022-07-29T08:09:53;101327.72;;;22.65;46.60
69223;BME280;56514;51.816;-0.026;2022-07-29T08:12:39;101317.13;;;22.72;46.56
69223;BME280;56514;51.816;-0.026;2022-07-29T08:15:23;101316.31;;;22.79;46.66
69223;BME280;56514;51.816;-0.026;2022-07-29T08:18:08;101319.13;;;22.94;46.79
69223;BME280;56514;51.816;-0.026;2022-07-29T08:20:54;101324.53;;;23.10;46.44
69223;BME280;56514;51.816;-0.026;2022-07-29T08:23:39;101328.53;;;23.22;46.08
69223;BME280;56514;51.816;-0.026;2022-07-29T08:26:49;101319.81;;;23.36;45.58
69223;BME280;56514;51.816;-0.026;2022-07-29T08:29:54;101318.75;;;23.45;45.05
69223;BME280;56514;51.816;-0.026;2022-07-29T08:33:04;101319.41;;;23.47;43.74
69223;BME280;56514;51.816;-0.026;2022-07-29T08:36:13;101315.38;;;23.51;44.02
69223;BME280;56514;51.816;-0.026;2022-07-29T08:39:23;101314.19;;;23.45;43.32
69223;BME280;56514;51.816;-0.026;2022-07-29T08:42:32;101311.16;;;23.48;43.89
69223;BME280;56514;51.816;-0.026;2022-07-29T08:45:46;101313.66;;;23.58;43.67
69223;BME280;56514;51.816;-0.026;2022-07-29T08:48:55;101320.03;;;23.65;43.29
69223;BME280;56514;51.816;-0.026;2022-07-29T08:52:06;101321.03;;;23.64;42.53
69223;BME280;56514;51.816;-0.026;2022-07-29T08:55:16;101317.97;;;23.75;42.65
69223;BME280;56514;51.816;-0.026;2022-07-29T08:58:27;101319.28;;;23.79;41.98
69223;BME280;56514;51.816;-0.026;2022-07-29T09:01:43;101321.63;;;23.82;41.99
69223;BME280;56514;51.816;-0.026;2022-07-29T09:04:53;101310.69;;;23.83;40.98
69223;BME280;56514;51.816;-0.026;2022-07-29T09:08:04;101315.81;;;23.70;40.84
69223;BME280;56514;51.816;-0.026;2022-07-29T09:11:13;101319.28;;;23.79;40.80
69223;BME280;56514;51.816;-0.026;2022-07-29T09:14:22;101315.69;;;23.94;39.83
69223;BME280;56514;51.816;-0.026;2022-07-29T09:17:42;101318.19;;;24.12;40.16
69223;BME280;56514;51.816;-0.026;2022-07-29T09:20:52;101319.41;;;24.55;39.30
69223;BME280;56514;51.816;-0.026;2022-07-29T09:24:20;101310.53;;;24.69;37.64
69223;BME280;56514;51.816;-0.026;2022-07-29T09:29:57;101319.06;;;24.58;38.52
69223;BME280;56514;51.816;-0.026;2022-07-29T09:32:57;101319.72;;;24.82;38.77
69223;BME280;56514;51.816;-0.026;2022-07-29T09:35:42;101308.31;;;24.95;37.51
69223;BME280;56514;51.816;-0.026;2022-07-29T09:38:27;101307.47;;;24.94;37.20
69223;BME280;56514;51.816;-0.026;2022-07-29T09:41:13;101310.38;;;24.93;37.30
69223;BME280;56514;51.816;-0.026;2022-07-29T09:43:59;101297.97;;;24.98;36.86
69223;BME280;56514;51.816;-0.026;2022-07-29T09:47:00;101296.50;;;25.10;37.63
69223;BME280;56514;51.816;-0.026;2022-07-29T09:49:58;101288.59;;;25.23;37.46
69223;BME280;56514;51.816;-0.026;2022-07-29T09:52:46;101285.72;;;25.25;36.32
69223;BME280;56514;51.816;-0.026;2022-07-29T09:55:32;101292.03;;;25.17;37.30
69223;BME280;56514;51.816;-0.026;2022-07-29T09:58:19;101288.38;;;25.33;36.87
69223;BME280;56514;51.816;-0.026;2022-07-29T10:01:04;101291.84;;;25.41;36.00
69223;BME280;56514;51.816;-0.026;2022-07-29T10:03:51;101291.47;;;25.44;35.24
69223;BME280;56514;51.816;-0.026;2022-07-29T10:06:55;101296.75;;;25.38;35.07
69223;BME280;56514;51.816;-0.026;2022-07-29T10:09:52;101294.06;;;25.38;35.69
69223;BME280;56514;51.816;-0.026;2022-07-29T10:12:57;101289.50;;;25.53;35.77
69223;BME280;56514;51.816;-0.026;2022-07-29T10:15:43;101283.16;;;25.75;36.57
69223;BME280;56514;51.816;-0.026;2022-07-29T10:18:29;101287.56;;;25.97;35.92
69223;BME280;56514;51.816;-0.026;2022-07-29T10:21:15;101281.22;;;26.05;35.49
69223;BME280;56514;51.816;-0.026;2022-07-29T10:24:00;101281.13;;;25.98;33.56
69223;BME280;56514;51.816;-0.026;2022-07-29T10:27:08;101281.09;;;25.62;33.45
69223;BME280;56514;51.816;-0.026;2022-07-29T10:30:13;101284.38;;;25.58;34.41
69223;BME280;56514;51.816;-0.026;2022-07-29T10:33:54;101289.56;;;25.74;34.38
69223;BME280;56514;51.816;-0.026;2022-07-29T10:37:19;101296.06;;;25.94;34.42
69223;BME280;56514;51.816;-0.026;2022-07-29T10:44:18;101284.88;;;26.33;33.63
69223;BME280;56514;51.816;-0.026;2022-07-29T10:47:24;101291.47;;;26.66;33.68
69223;BME280;56514;51.816;-0.026;2022-07-29T10:50:27;101287.94;;;26.86;32.87
69223;BME280;56514;51.816;-0.026;2022-07-29T10:54:02;101292.25;;;27.08;32.67
69223;BME280;56514;51.816;-0.026;2022-07-29T10:57:21;101297.31;;;27.18;32.34
69223;BME280;56514;51.816;-0.026;2022-07-29T11:00:26;101283.69;;;27.32;31.81
69223;BME280;56514;51.816;-0.026;2022-07-29T11:03:46;101282.13;;;27.51;32.22
69223;BME280;56514;51.816;-0.026;2022-07-29T11:13:52;101281.00;;;27.73;29.85
69223;BME280;56514;51.816;-0.026;2022-07-29T11:17:05;101280.06;;;27.53;30.71
69223;BME280;56514;51.816;-0.026;2022-07-29T11:24:20;101283.78;;;27.18;30.65
69223;BME280;56514;51.816;-0.026;2022-07-29T11:27:16;101286.25;;;27.13;30.85
69223;BME280;56514;51.816;-0.026;2022-07-29T11:30:01;101277.56;;;27.24;30.94
69223;BME280;56514;51.816;-0.026;2022-07-29T11:32:48;101288.34;;;27.45;31.17
69223;BME280;56514;51.816;-0.026;2022-07-29T11:35:34;101295.22;;;27.82;30.02
69223;BME280;56514;51.816;-0.026;2022-07-29T11:41:25;101282.41;;;28.16;30.32
69223;BME280;56514;51.816;-0.026;2022-07-29T11:44:10;101287.50;;;28.45;29.72
69223;BME280;56514;51.816;-0.026;2022-07-29T11:46:55;101282.53;;;28.68;29.01
69223;BME280;56514;51.816;-0.026;2022-07-29T11:49:44;101274.41;;;28.88;28.56
69223;BME280;56514;51.816;-0.026;2022-07-29T11:52:40;101270.41;;;29.17;28.76
69223;BME280;56514;51.816;-0.026;2022-07-29T11:55:29;101276.63;;;29.50;28.73
69223;BME280;56514;51.816;-0.026;2022-07-29T11:58:21;101281.38;;;29.61;26.84
69223;BME280;56514;51.816;-0.026;2022-07-29T12:01:07;101276.81;;;29.55;27.29
69223;BME280;56514;51.816;-0.026;2022-07-29T12:04:06;101272.19;;;29.62;26.65
69223;BME280;56514;51.816;-0.026;2022-07-29T12:06:54;101279.38;;;29.37;26.42
69223;BME280;56514;51.816;-0.026;2022-07-29T12:09:50;101272.47;;;29.41;26.31
69223;BME280;56514;51.816;-0.026;2022-07-29T12:12:36;101273.28;;;29.48;26.53
69223;BME280;56514;51.816;-0.026;2022-07-29T12:15:23;101269.63;;;29.86;27.05
69223;BME280;56514;51.816;-0.026;2022-07-29T12:18:14;101272.38;;;30.24;25.69
69223;BME280;56514;51.816;-0.026;2022-07-29T12:21:00;101274.97;;;30.43;25.11
69223;BME280;56514;51.816;-0.026;2022-07-29T12:23:52;101282.47;;;30.48;25.08
69223;BME280;56514;51.816;-0.026;2022-07-29T12:26:52;101279.38;;;30.69;25.01
69223;BME280;56514;51.816;-0.026;2022-07-29T12:30:04;101274.56;;;30.40;24.30
69223;BME280;56514;51.816;-0.026;2022-07-29T12:33:24;101265.38;;;29.97;25.40
69223;BME280;56514;51.816;-0.026;2022-07-29T12:36:35;101262.69;;;30.28;25.12
69223;BME280;56514;51.816;-0.026;2022-07-29T12:39:45;101271.09;;;30.57;24.67
69223;BME280;56514;51.816;-0.026;2022-07-29T12:43:25;101265.09;;;30.98;24.77
69223;BME280;56514;51.816;-0.026;2022-07-29T12:46:34;101258.31;;;31.68;24.86
69223;BME280;56514;51.816;-0.026;2022-07-29T12:49:45;101256.16;;;32.06;23.63
69223;BME280;56514;51.816;-0.026;2022-07-29T12:52:54;101261.00;;;32.04;23.61
69223;BME280;56514;51.816;-0.026;2022-07-29T12:56:16;101263.16;;;31.66;23.55
69223;BME280;56514;51.816;-0.026;2022-07-29T12:59:26;101265.19;;;31.70;24.10
69223;BME280;56514;51.816;-0.026;2022-07-29T13:02:36;101253.81;;;32.51;23.41
69223;BME280;56514;51.816;-0.026;2022-07-29T13:05:46;101254.94;;;33.42;22.04
69223;BME280;56514;51.816;-0.026;2022-07-29T13:12:19;101246.88;;;34.59;19.13
69223;BME280;56514;51.816;-0.026;2022-07-29T13:15:29;101240.66;;;36.53;17.74
69223;BME280;56514;51.816;-0.026;2022-07-29T13:18:39;101249.75;;;37.73;15.93
69223;BME280;56514;51.816;-0.026;2022-07-29T13:21:50;101252.16;;;39.12;15.50
69223;BME280;56514;51.816;-0.026;2022-07-29T13:25:00;101242.47;;;40.99;14.49
69223;BME280;56514;51.816;-0.026;2022-07-29T13:28:15;101239.50;;;41.66;13.54
69223;BME280;56514;51.816;-0.026;2022-07-29T13:31:26;101237.84;;;43.03;12.81
69223;BME280;56514;51.816;-0.026;2022-07-29T13:34:11;101232.69;;;44.05;12.55
69223;BME280;56514;51.816;-0.026;2022-07-29T13:36:55;101233.66;;;44.89;10.43
69223;BME280;56514;51.816;-0.026;2022-07-29T13:39:40;101236.47;;;45.28;10.81
69223;BME280;56514;51.816;-0.026;2022-07-29T13:42:57;101238.28;;;42.14;11.94
69223;BME280;56514;51.816;-0.026;2022-07-29T13:45:41;101244.47;;;39.72;13.33
69223;BME280;56514;51.816;-0.026;2022-07-29T13:48:26;101236.13;;;38.28;15.00
69223;BME280;56514;51.816;-0.026;2022-07-29T13:51:11;101238.09;;;37.56;15.82
69223;BME280;56514;51.816;-0.026;2022-07-29T13:53:56;101238.16;;;37.66;15.78
69223;BME280;56514;51.816;-0.026;2022-07-29T13:56:41;101242.50;;;38.69;14.69
69223;BME280;56514;51.816;-0.026;2022-07-29T13:59:36;101237.19;;;40.74;14.08
69223;BME280;56514;51.816;-0.026;2022-07-29T14:02:21;101239.47;;;43.23;12.35
69223;BME280;56514;51.816;-0.026;2022-07-29T14:05:07;101236.41;;;45.11;11.15
69223;BME280;56514;51.816;-0.026;2022-07-29T14:07:53;101241.84;;;44.94;10.84
69223;BME280;56514;51.816;-0.026;2022-07-29T14:10:37;101243.28;;;43.27;11.84
69223;BME280;56514;51.816;-0.026;2022-07-29T14:13:22;101238.03;;;41.74;12.20
69223;BME280;56514;51.816;-0.026;2022-07-29T14:16:07;101239.88;;;39.53;13.50
69223;BME280;56514;51.816;-0.026;2022-07-29T14:18:52;101237.16;;;37.97;14.63
69223;BME280;56514;51.816;-0.026;2022-07-29T14:21:37;101242.13;;;36.97;15.98
69223;BME280;56514;51.816;-0.026;2022-07-29T14:24:23;101246.03;;;36.11;16.70
69223;BME280;56514;51.816;-0.026;2022-07-29T14:28:47;101236.81;;;35.14;17.77
69223;BME280;56514;51.816;-0.026;2022-07-29T14:31:33;101245.19;;;34.86;18.08
69223;BME280;56514;51.816;-0.026;2022-07-29T14:34:17;101250.44;;;34.60;17.99
69223;BME280;56514;51.816;-0.026;2022-07-29T14:37:22;101245.56;;;33.89;18.50
69223;BME280;56514;51.816;-0.026;2022-07-29T14:40:27;101237.75;;;33.69;19.20
69223;BME280;56514;51.816;-0.026;2022-07-29T14:43:33;101248.25;;;34.01;19.34
69223;BME280;56514;51.816;-0.026;2022-07-29T14:46:38;101241.72;;;34.18;19.36
69223;BME280;56514;51.816;-0.026;2022-07-29T14:49:49;101246.66;;;34.33;19.42
69223;BME280;56514;51.816;-0.026;2022-07-29T14:52:59;101234.75;;;34.39;18.97
69223;BME280;56514;51.816;-0.026;2022-07-29T14:56:09;101229.44;;;34.49;19.33
69223;BME280;56514;51.816;-0.026;2022-07-29T14:59:19;101227.25;;;35.00;18.63
69223;BME280;56514;51.816;-0.026;2022-07-29T15:02:28;101226.06;;;36.21;17.27
69223;BME280;56514;51.816;-0.026;2022-07-29T15:05:38;101217.56;;;36.49;17.09
69223;BME280;56514;51.816;-0.026;2022-07-29T15:08:48;101216.00;;;36.31;17.34
69223;BME280;56514;51.816;-0.026;2022-07-29T15:11:57;101212.19;;;36.32;17.41
69223;BME280;56514;51.816;-0.026;2022-07-29T15:15:06;101210.50;;;36.31;16.85
69223;BME280;56514;51.816;-0.026;2022-07-29T15:18:16;101212.63;;;36.51;16.81
69223;BME280;56514;51.816;-0.026;2022-07-29T15:21:02;101203.59;;;36.60;17.23
69223;BME280;56514;51.816;-0.026;2022-07-29T15:23:47;101199.38;;;36.43;17.23
69223;BME280;56514;51.816;-0.026;2022-07-29T15:26:32;101187.63;;;36.26;17.34
69223;BME280;56514;51.816;-0.026;2022-07-29T15:29:18;101185.72;;;36.26;17.98
69223;BME280;56514;51.816;-0.026;2022-07-29T15:32:03;101190.34;;;38.37;16.69
69223;BME280;56514;51.816;-0.026;2022-07-29T15:34:48;101185.31;;;40.17;14.71
69223;BME280;56514;51.816;-0.026;2022-07-29T15:37:33;101188.31;;;40.31;14.12
69223;BME280;56514;51.816;-0.026;2022-07-29T15:40:20;101190.53;;;40.24;13.84
69223;BME280;56514;51.816;-0.026;2022-07-29T15:43:04;101202.78;;;40.12;13.55
69223;BME280;56514;51.816;-0.026;2022-07-29T15:45:50;101203.06;;;38.74;14.42